createdAt,value
2019-03-20T00:01:22.284Z,8.63
2019-03-20T00:06:24.991Z,6.00
2019-03-20T00:11:27.672Z,8.60
2019-03-20T00:16:30.371Z,9.60
2019-03-20T00:21:33.077Z,4.50
2019-03-20T00:26:35.801Z,3.90
2019-03-20T00:31:38.510Z,6.40
2019-03-20T00:36:41.195Z,10.43
2019-03-20T00:41:43.923Z,2.77
2019-03-20T00:46:46.614Z,6.53
2019-03-20T00:51:49.308Z,15.33
2019-03-20T00:56:52.008Z,14.37
2019-03-20T01:01:54.702Z,7.73
2019-03-20T01:06:57.401Z,9.70
2019-03-20T01:12:00.103Z,9.50
2019-03-20T01:17:02.800Z,3.30
2019-03-20T01:22:05.496Z,7.10
2019-03-20T01:27:08.212Z,7.83
2019-03-20T01:32:10.997Z,13.40
2019-03-20T01:37:13.682Z,10.40
2019-03-20T01:42:16.408Z,8.33
2019-03-20T01:47:19.092Z,5.23
2019-03-20T01:52:21.780Z,10.27
2019-03-20T01:57:24.470Z,6.67
2019-03-20T02:02:27.170Z,7.00
2019-03-20T02:07:29.957Z,4.20
2019-03-20T02:12:32.755Z,10.90
2019-03-20T02:17:35.441Z,5.87
2019-03-20T02:22:38.139Z,16.77
2019-03-20T02:27:40.862Z,5.97
2019-03-20T02:32:43.590Z,4.97
2019-03-20T02:37:46.299Z,6.97
2019-03-20T02:42:48.984Z,7.37
2019-03-20T02:47:51.689Z,9.43
2019-03-20T02:52:54.415Z,7.70
2019-03-20T02:57:57.239Z,9.03
2019-03-20T03:02:59.943Z,15.63
2019-03-20T03:08:02.677Z,6.13
2019-03-20T03:13:05.403Z,10.33
2019-03-20T03:18:08.113Z,9.47
2019-03-20T03:23:10.878Z,8.43
2019-03-20T03:28:13.676Z,5.20
2019-03-20T03:33:16.385Z,5.30
2019-03-20T03:38:19.066Z,6.47
2019-03-20T03:43:24.173Z,9.67
2019-03-20T03:48:26.398Z,12.70
2019-03-20T03:53:37.772Z,19.90
2019-03-20T03:58:40.978Z,11.00
2019-03-20T04:03:43.777Z,13.40
2019-03-20T04:08:46.524Z,11.43
2019-03-20T04:13:49.302Z,10.33
2019-03-20T04:18:52.083Z,18.17
2019-03-20T04:23:54.906Z,18.27
2019-03-20T04:28:57.715Z,15.53
2019-03-20T04:34:00.505Z,12.30
2019-03-20T04:39:05.794Z,19.77
2019-03-20T04:44:08.519Z,15.90
2019-03-20T04:49:11.249Z,16.10
2019-03-20T04:54:13.984Z,20.00
2019-03-20T04:59:16.721Z,16.93
2019-03-20T05:04:19.437Z,20.30
2019-03-20T05:09:22.149Z,24.57
2019-03-20T05:14:24.851Z,16.80
2019-03-20T05:19:27.551Z,23.40
2019-03-20T05:24:30.279Z,22.23
2019-03-20T05:29:32.983Z,19.60
2019-03-20T05:34:35.691Z,23.00
2019-03-20T05:39:38.406Z,34.63
2019-03-20T05:44:41.101Z,19.50
2019-03-20T05:49:46.063Z,18.73
2019-03-20T05:54:48.895Z,26.27
2019-03-20T05:59:51.635Z,17.40
2019-03-20T06:04:54.369Z,19.43
2019-03-20T06:09:57.067Z,25.03
2019-03-20T06:14:59.789Z,23.57
2019-03-20T06:20:02.766Z,23.97
2019-03-20T06:25:06.025Z,26.10
2019-03-20T06:30:12.556Z,20.47
2019-03-20T06:35:15.399Z,31.73
2019-03-20T06:40:18.130Z,19.17
2019-03-20T06:45:20.963Z,19.27
2019-03-20T06:50:23.684Z,24.53
2019-03-20T06:55:26.968Z,22.47
2019-03-20T07:01:23.818Z,21.63
2019-03-20T07:06:51.441Z,27.43
2019-03-20T07:11:54.368Z,20.60
2019-03-20T07:16:57.412Z,25.53
2019-03-20T07:22:00.133Z,31.77
2019-03-20T07:27:02.833Z,22.77
2019-03-20T07:32:05.590Z,27.43
2019-03-20T07:37:08.640Z,30.93
2019-03-20T07:42:11.355Z,31.47
2019-03-20T07:47:14.081Z,26.20
2019-03-20T07:52:16.802Z,19.20
2019-03-20T07:57:19.519Z,25.13
2019-03-20T08:02:22.233Z,27.80
2019-03-20T08:07:24.964Z,21.97
2019-03-20T08:12:27.762Z,19.00
2019-03-20T08:17:30.584Z,26.00
2019-03-20T08:22:33.339Z,22.40
2019-03-20T08:27:36.070Z,19.97
2019-03-20T08:32:38.818Z,23.50
2019-03-20T08:37:41.583Z,19.73
2019-03-20T08:42:44.328Z,23.40
2019-03-20T08:47:47.088Z,22.53
2019-03-20T08:52:49.962Z,16.37
2019-03-20T08:57:52.689Z,19.57
2019-03-20T09:02:55.466Z,24.57
2019-03-20T09:07:58.242Z,24.67
2019-03-20T09:13:00.984Z,22.60
2019-03-20T09:18:03.922Z,28.27
2019-03-20T09:23:06.691Z,18.70
2019-03-20T09:28:09.421Z,20.67
2019-03-20T09:33:12.153Z,24.60
2019-03-20T09:38:14.856Z,23.30
2019-03-20T09:43:17.571Z,20.23
2019-03-20T09:48:20.293Z,18.43
2019-03-20T09:53:23.066Z,20.07
2019-03-20T09:58:25.785Z,14.47
2019-03-20T10:03:28.533Z,21.03
2019-03-20T10:08:31.268Z,20.27
2019-03-20T10:13:34.017Z,16.93
2019-03-20T10:18:36.772Z,16.03
2019-03-20T10:23:39.542Z,16.10
2019-03-20T10:28:42.285Z,13.97
2019-03-20T10:33:45.012Z,15.77
2019-03-20T10:38:48.801Z,17.80
2019-03-20T10:43:52.440Z,15.07
2019-03-20T10:48:56.374Z,15.43
2019-03-20T10:53:59.239Z,23.83
2019-03-20T10:59:01.994Z,17.07
2019-03-20T11:04:04.715Z,16.07
2019-03-20T11:09:17.771Z,16.20
2019-03-20T11:14:12.457Z,12.93
2019-03-20T11:19:15.183Z,13.73
2019-03-20T11:24:17.894Z,15.63
2019-03-20T11:29:21.712Z,19.40
2019-03-20T11:34:24.850Z,26.97
2019-03-20T11:39:29.941Z,15.00
2019-03-20T11:44:32.221Z,15.17
2019-03-20T11:49:34.952Z,17.70
2019-03-20T11:54:37.679Z,22.93
2019-03-20T11:59:40.414Z,20.40
2019-03-20T12:04:43.130Z,14.60
2019-03-20T12:09:45.844Z,15.20
2019-03-20T12:14:48.587Z,13.80
2019-03-20T12:19:51.348Z,15.50
2019-03-20T12:24:54.057Z,19.73
2019-03-20T12:29:56.766Z,20.03
2019-03-20T12:34:59.480Z,18.20
2019-03-20T12:40:02.350Z,16.80
2019-03-20T12:45:08.691Z,12.80
2019-03-20T12:50:11.461Z,16.50
2019-03-20T12:55:14.499Z,13.83
2019-03-20T13:00:19.443Z,24.37
2019-03-20T13:05:22.242Z,13.90
2019-03-20T13:10:25.004Z,17.07
2019-03-20T13:15:27.731Z,15.87
2019-03-20T13:20:30.469Z,18.53
2019-03-20T13:25:33.269Z,14.43
2019-03-20T13:30:58.597Z,13.10
2019-03-20T13:36:01.307Z,12.50
2019-03-20T13:41:04.144Z,17.73
2019-03-20T13:46:06.849Z,16.00
2019-03-20T13:51:09.550Z,8.90
2019-03-20T13:56:12.270Z,11.23
2019-03-20T14:01:14.989Z,12.43
2019-03-20T14:06:17.699Z,14.77
2019-03-20T14:11:20.426Z,10.03
2019-03-20T14:16:23.139Z,9.70
2019-03-20T14:21:25.853Z,11.37
2019-03-20T14:26:28.578Z,8.77
2019-03-20T14:31:31.315Z,10.20
2019-03-20T14:36:34.026Z,9.53
2019-03-20T14:41:36.744Z,16.40
2019-03-20T14:46:39.469Z,24.03
2019-03-20T14:51:42.279Z,16.10
2019-03-20T14:56:45.036Z,17.30
2019-03-20T15:01:47.967Z,10.67
2019-03-20T15:06:50.667Z,13.63
2019-03-20T15:11:53.359Z,17.00
2019-03-20T15:16:56.067Z,18.20
2019-03-20T15:21:58.815Z,24.70
2019-03-20T15:27:01.967Z,16.33
2019-03-20T15:32:04.695Z,13.67
2019-03-20T15:37:07.438Z,18.40
2019-03-20T15:42:10.165Z,16.43
2019-03-20T15:47:12.867Z,16.20
2019-03-20T15:52:15.593Z,13.53
2019-03-20T15:57:18.339Z,14.43
2019-03-20T16:02:21.058Z,16.67
2019-03-20T16:07:23.791Z,21.57
2019-03-20T16:12:26.511Z,14.90
2019-03-20T16:17:29.229Z,17.57
2019-03-20T16:22:31.945Z,9.30
2019-03-20T16:27:34.648Z,12.60
2019-03-20T16:32:37.450Z,7.40
2019-03-20T16:37:40.145Z,12.10
2019-03-20T16:42:42.868Z,6.13
2019-03-20T16:47:45.585Z,10.57
2019-03-20T16:52:48.294Z,10.90
2019-03-20T16:57:51.139Z,7.57
2019-03-20T17:02:53.883Z,8.13
2019-03-20T17:07:58.600Z,9.53
2019-03-20T17:13:01.437Z,9.20
2019-03-20T17:18:04.707Z,11.57
2019-03-20T17:23:07.967Z,9.33
2019-03-20T17:28:10.957Z,10.97
2019-03-20T17:33:13.778Z,9.47
2019-03-20T17:38:16.479Z,9.67
2019-03-20T17:43:19.226Z,13.63
2019-03-20T17:48:21.936Z,14.63
2019-03-20T17:53:24.637Z,11.23
2019-03-20T17:58:27.351Z,9.70
2019-03-20T18:03:30.068Z,11.97
2019-03-20T18:08:32.770Z,15.67
2019-03-20T18:13:36.464Z,12.40
2019-03-20T18:18:39.220Z,10.17
2019-03-20T18:23:41.982Z,12.17
2019-03-20T18:28:44.722Z,10.10
2019-03-20T18:33:47.458Z,12.20
2019-03-20T18:38:50.177Z,15.20
2019-03-20T18:43:52.989Z,9.93
2019-03-20T18:48:55.802Z,10.53
2019-03-20T18:53:59.065Z,14.87
2019-03-20T18:59:02.814Z,12.10
2019-03-20T19:04:05.702Z,18.60
2019-03-20T19:09:09.024Z,15.40
2019-03-20T19:14:11.833Z,15.07
2019-03-20T19:19:14.611Z,13.60
2019-03-20T19:24:17.315Z,16.40
2019-03-20T19:29:20.040Z,18.93
2019-03-20T19:34:22.772Z,14.47
2019-03-20T19:39:25.469Z,19.10
2019-03-20T19:44:28.184Z,13.97
2019-03-20T19:49:30.916Z,21.90
2019-03-20T19:54:33.836Z,16.50
2019-03-20T19:59:36.576Z,13.37
2019-03-20T20:04:39.282Z,15.50
2019-03-20T20:09:42.007Z,13.43
2019-03-20T20:14:45.597Z,17.23
2019-03-20T20:19:50.245Z,16.83
2019-03-20T20:24:53.029Z,18.33
2019-03-20T20:29:55.734Z,15.77
2019-03-20T20:34:58.439Z,23.30
2019-03-20T20:40:01.147Z,16.50
2019-03-20T20:45:04.256Z,19.67
2019-03-20T20:50:07.389Z,18.53
2019-03-20T20:55:11.386Z,20.83
2019-03-20T21:00:17.173Z,18.47
2019-03-20T21:05:19.911Z,21.83
2019-03-20T21:10:22.708Z,20.30
2019-03-20T21:15:46.887Z,20.70
2019-03-20T21:20:50.441Z,26.20
2019-03-20T21:25:54.350Z,26.77
2019-03-20T21:31:18.678Z,28.37
2019-03-20T21:37:02.933Z,25.40
2019-03-20T21:43:06.858Z,20.90
2019-03-20T21:48:05.341Z,21.70
2019-03-20T21:53:10.855Z,26.40
2019-03-20T21:58:36.716Z,24.60
2019-03-20T22:03:40.519Z,27.40
2019-03-20T22:08:44.035Z,29.57
2019-03-20T22:13:54.270Z,26.13
2019-03-20T22:19:44.252Z,26.60
2019-03-20T22:25:38.074Z,29.50
2019-03-20T22:30:41.593Z,28.40
2019-03-20T22:36:13.225Z,38.53
2019-03-20T22:42:24.630Z,26.97
2019-03-20T22:48:38.899Z,26.07
2019-03-20T22:55:00.081Z,28.30
2019-03-20T23:00:04.852Z,23.70
2019-03-20T23:05:09.215Z,29.50
2019-03-20T23:10:13.880Z,26.13
2019-03-20T23:15:17.601Z,30.80
2019-03-20T23:20:23.188Z,28.93
2019-03-20T23:25:26.712Z,27.30
2019-03-20T23:30:30.309Z,32.17
2019-03-20T23:35:33.848Z,27.80
2019-03-20T23:40:37.368Z,31.40
2019-03-20T23:45:40.894Z,34.30
2019-03-20T23:50:44.458Z,34.63
2019-03-20T23:55:48.017Z,34.17
